Terminal Aerodrome Forecast
Issued by NWS

Home | Current Version | Previous Version | Text Only | Print | Product List | Glossary On
Versions: 1 2 3 4 5 6 7 8 9 10 11 12 13 14 15 16 17 18 19 20 21 22 23 24 25 26 27 28 29 30 31 32 33 34 35 36
000
FTUS45 KPSR 240500
TAFSDL
TAF
KSDL 240535Z 2406/2506 06010G20KT P6SM VCTS SCT090CB BKN150
      TEMPO 2406/2407 VRB15G25KT 5SM TSRA BKN090CB
     FM240700 07010KT P6SM VCTS SCT100CB BKN150
     FM240900 11008KT P6SM SCT100 BKN180 OVC250
     FM241700 15009KT P6SM FEW100 SCT150 BKN250=

USA.gov is the U.S. government's official web portal to all federal, state and local government web resources and services.